Time;durP1;ratioP1;P1;durP2;ratioP2;P2;SDS_P1;SDS_P2;PMS_P1;PMS_P2;Temp;Humidity;BMP_temperature;BMP_pressure;BME280_temperature;BME280_humidity;BME280_pressure;Samples;Min_cycle;Max_cycle;Signal;HPM_P1;HPM_P2
2023/07/03 00:02:06;;;;;;;4.70;3.77;;;;;;;;;;6211950;28;20183;-66
2023/07/03 00:05:08;;;;;;;4.83;3.17;;;;;;;;;;6184459;28;20258;-66
2023/07/03 00:08:10;;;;;;;3.73;3.27;;;;;;;;;;6184547;28;20189;-66
2023/07/03 00:11:11;;;;;;;3.83;3.43;;;;;;;;;;6177410;28;20204;-66
2023/07/03 00:14:12;;;;;;;3.63;3.33;;;;;;;;;;6179543;28;20242;-66
2023/07/03 00:17:13;;;;;;;3.87;3.17;;;;;;;;;;6193237;28;20187;-66
2023/07/03 00:20:15;;;;;;;4.13;3.17;;;;;;;;;;6178779;28;20291;-66
2023/07/03 00:23:16;;;;;;;4.33;3.10;;;;;;;;;;6198818;28;20304;-66
2023/07/03 00:26:17;;;;;;;3.67;3.20;;;;;;;;;;6200688;28;20189;-66
2023/07/03 00:29:18;;;;;;;4.50;3.27;;;;;;;;;;6184264;28;20203;-66
2023/07/03 00:32:19;;;;;;;4.17;3.07;;;;;;;;;;6184109;28;20213;-66
2023/07/03 00:35:20;;;;;;;5.47;3.33;;;;;;;;;;6177764;28;20224;-66
2023/07/03 00:38:21;;;;;;;3.70;3.40;;;;;;;;;;6169103;28;20192;-66
2023/07/03 00:41:22;;;;;;;4.07;3.47;;;;;;;;;;6184563;28;20233;-66
2023/07/03 00:44:23;;;;;;;3.23;2.63;;;;;;;;;;6189642;28;20191;-66
2023/07/03 00:47:25;;;;;;;4.60;3.50;;;;;;;;;;6192998;28;20196;-66
2023/07/03 00:50:26;;;;;;;4.40;3.40;;;;;;;;;;6199823;28;20219;-66
2023/07/03 00:53:27;;;;;;;4.77;3.57;;;;;;;;;;6201595;28;20200;-66
2023/07/03 00:56:28;;;;;;;4.67;3.33;;;;;;;;;;6176772;28;20249;-66
2023/07/03 00:59:29;;;;;;;4.47;3.20;;;;;;;;;;6201315;28;20226;-66
2023/07/03 01:02:39;;;;;;;3.90;3.50;;;;;;;;;;6189181;28;20191;-66
2023/07/03 01:05:43;;;;;;;4.00;3.20;;;;;;;;;;6218026;28;20192;-66
2023/07/03 01:08:45;;;;;;;3.67;3.17;;;;;;;;;;6200609;28;20193;-66
2023/07/03 01:11:47;;;;;;;3.83;3.50;;;;;;;;;;6208150;28;20196;-66
2023/07/03 01:14:49;;;;;;;4.73;3.70;;;;;;;;;;6194714;28;20239;-66
2023/07/03 01:17:52;;;;;;;4.20;3.80;;;;;;;;;;6199959;28;20230;-66
2023/07/03 01:21:19;;;;;;;4.07;3.67;;;;;;;;;;6209188;28;20191;-66
2023/07/03 01:24:30;;;;;;;4.23;3.70;;;;;;;;;;6184080;28;20232;-66
2023/07/03 01:27:32;;;;;;;4.43;3.40;;;;;;;;;;6205771;28;20198;-66
2023/07/03 01:30:34;;;;;;;4.97;3.40;;;;;;;;;;6192380;28;20199;-66
2023/07/03 01:33:40;;;;;;;4.17;3.40;;;;;;;;;;6181768;28;20246;-66
2023/07/03 01:36:41;;;;;;;3.50;3.17;;;;;;;;;;6203729;28;20241;-66
2023/07/03 01:39:43;;;;;;;5.40;3.60;;;;;;;;;;6179909;28;20296;-66
2023/07/03 01:42:45;;;;;;;3.90;3.43;;;;;;;;;;6195164;28;20194;-66
2023/07/03 01:45:47;;;;;;;3.60;3.30;;;;;;;;;;6202798;28;20222;-66
2023/07/03 01:48:48;;;;;;;5.07;3.80;;;;;;;;;;6198093;28;20195;-66
2023/07/03 01:51:59;;;;;;;4.67;3.73;;;;;;;;;;6183569;28;20199;-66
2023/07/03 01:55:03;;;;;;;4.30;3.90;;;;;;;;;;6186263;28;20311;-67
2023/07/03 01:58:23;;;;;;;4.80;3.83;;;;;;;;;;6181979;28;20188;-67
2023/07/03 02:01:33;;;;;;;5.10;3.90;;;;;;;;;;6198599;28;20277;-67
2023/07/03 02:05:00;;;;;;;3.70;3.40;;;;;;;;;;6210829;28;20183;-67
2023/07/03 02:08:02;;;;;;;4.00;3.60;;;;;;;;;;6165404;28;20207;-67
2023/07/03 02:11:03;;;;;;;3.97;3.50;;;;;;;;;;6180019;28;20220;-67
2023/07/03 02:14:05;;;;;;;4.90;4.43;;;;;;;;;;6182539;28;20304;-67
2023/07/03 02:17:06;;;;;;;6.17;4.33;;;;;;;;;;6195207;28;20192;-67
2023/07/03 02:20:13;;;;;;;3.90;3.50;;;;;;;;;;6179319;28;20204;-67
2023/07/03 02:23:14;;;;;;;5.03;3.83;;;;;;;;;;6188150;28;20227;-67
2023/07/03 02:26:15;;;;;;;5.33;3.90;;;;;;;;;;6187740;28;20278;-67
2023/07/03 02:29:16;;;;;;;5.67;3.70;;;;;;;;;;6187156;28;20199;-67
2023/07/03 02:32:18;;;;;;;4.30;3.60;;;;;;;;;;6203386;28;20203;-67
2023/07/03 02:35:19;;;;;;;4.77;3.50;;;;;;;;;;6188535;28;20242;-67
2023/07/03 02:38:20;;;;;;;7.33;3.97;;;;;;;;;;6194166;28;20187;-67
2023/07/03 02:41:22;;;;;;;4.77;3.50;;;;;;;;;;6202970;28;20192;-67
2023/07/03 02:44:23;;;;;;;5.57;3.90;;;;;;;;;;6181470;28;20204;-67
2023/07/03 02:47:24;;;;;;;4.70;4.10;;;;;;;;;;6183462;28;20192;-67
2023/07/03 02:50:25;;;;;;;4.87;4.07;;;;;;;;;;6178610;28;20202;-66
2023/07/03 02:53:27;;;;;;;3.97;3.43;;;;;;;;;;6176062;28;20203;-66
2023/07/03 02:56:28;;;;;;;4.23;3.53;;;;;;;;;;6167068;28;20248;-66
2023/07/03 02:59:29;;;;;;;4.73;3.90;;;;;;;;;;6188260;28;20315;-66
2023/07/03 03:02:30;;;;;;;6.67;4.27;;;;;;;;;;6186120;28;20302;-66
2023/07/03 03:05:32;;;;;;;4.23;3.83;;;;;;;;;;6190476;28;20195;-66
2023/07/03 03:08:33;;;;;;;7.53;3.50;;;;;;;;;;6199219;28;20187;-66
2023/07/03 03:11:34;;;;;;;4.33;3.83;;;;;;;;;;6189597;28;20200;-66
2023/07/03 03:14:35;;;;;;;4.40;3.80;;;;;;;;;;6188928;28;20334;-66
2023/07/03 03:17:36;;;;;;;5.03;3.93;;;;;;;;;;6178540;28;20279;-67
2023/07/03 03:20:37;;;;;;;4.30;3.53;;;;;;;;;;6164555;28;20193;-67
2023/07/03 03:23:38;;;;;;;4.37;3.80;;;;;;;;;;6197092;28;20191;-67
2023/07/03 03:26:39;;;;;;;5.40;4.27;;;;;;;;;;6189619;28;20255;-67
2023/07/03 03:29:40;;;;;;;4.60;3.80;;;;;;;;;;6178520;28;20200;-67
2023/07/03 03:32:42;;;;;;;5.73;4.03;;;;;;;;;;6176549;28;20207;-67
2023/07/03 03:35:45;;;;;;;4.23;3.40;;;;;;;;;;6182312;28;20227;-67
2023/07/03 03:38:46;;;;;;;4.23;3.80;;;;;;;;;;6186767;28;20192;-67
2023/07/03 03:41:47;;;;;;;4.83;4.23;;;;;;;;;;6204122;28;20274;-67
2023/07/03 03:44:48;;;;;;;4.20;3.80;;;;;;;;;;6194355;28;20211;-67
2023/07/03 03:47:51;;;;;;;5.30;3.87;;;;;;;;;;6201044;28;20197;-67
2023/07/03 03:50:52;;;;;;;7.60;4.10;;;;;;;;;;6185044;28;20204;-67
2023/07/03 03:53:53;;;;;;;4.70;4.20;;;;;;;;;;6182002;28;20196;-67
2023/07/03 03:56:54;;;;;;;8.30;4.20;;;;;;;;;;6194242;28;20200;-67
2023/07/03 03:59:55;;;;;;;4.43;4.03;;;;;;;;;;6181232;28;20287;-67
2023/07/03 04:02:56;;;;;;;6.27;4.83;;;;;;;;;;6176789;28;20184;-67
2023/07/03 04:05:58;;;;;;;7.17;4.50;;;;;;;;;;6189569;28;20188;-67
2023/07/03 04:08:59;;;;;;;5.03;4.23;;;;;;;;;;6184006;28;20196;-67
2023/07/03 04:12:00;;;;;;;5.03;4.40;;;;;;;;;;6174247;28;20200;-67
2023/07/03 04:15:02;;;;;;;4.33;3.93;;;;;;;;;;6181177;28;20331;-67
2023/07/03 04:18:03;;;;;;;5.93;4.63;;;;;;;;;;6180891;28;20230;-67
2023/07/03 04:21:04;;;;;;;7.33;5.00;;;;;;;;;;6189755;28;20211;-67
2023/07/03 04:24:05;;;;;;;5.30;4.60;;;;;;;;;;6174701;28;20200;-66
2023/07/03 04:27:08;;;;;;;5.37;4.60;;;;;;;;;;6198896;28;20242;-67
2023/07/03 04:30:09;;;;;;;6.83;5.17;;;;;;;;;;6197737;28;20219;-67
2023/07/03 04:33:10;;;;;;;7.17;4.90;;;;;;;;;;6186982;28;20196;-67
2023/07/03 04:36:12;;;;;;;8.47;4.87;;;;;;;;;;6174877;28;20227;-67
2023/07/03 04:39:13;;;;;;;6.73;4.73;;;;;;;;;;6171181;28;20207;-67
2023/07/03 04:42:14;;;;;;;7.27;4.60;;;;;;;;;;6185116;28;20197;-66
2023/07/03 04:45:16;;;;;;;5.63;4.47;;;;;;;;;;6172960;28;20218;-66
2023/07/03 04:48:17;;;;;;;6.10;4.63;;;;;;;;;;6189081;28;20192;-66
2023/07/03 04:51:19;;;;;;;7.43;4.83;;;;;;;;;;6179492;28;20262;-66
2023/07/03 04:54:20;;;;;;;5.90;4.80;;;;;;;;;;6174310;28;20212;-67
2023/07/03 04:57:21;;;;;;;6.43;5.03;;;;;;;;;;6160241;28;20196;-66
2023/07/03 05:00:23;;;;;;;7.10;4.77;;;;;;;;;;6177966;28;20203;-66
2023/07/03 05:03:24;;;;;;;7.10;4.43;;;;;;;;;;6179470;28;20199;-66
2023/07/03 05:06:26;;;;;;;5.53;4.57;;;;;;;;;;6182973;28;20226;-67
2023/07/03 05:09:27;;;;;;;6.57;5.23;;;;;;;;;;6196125;28;20290;-67
2023/07/03 05:12:28;;;;;;;5.07;4.57;;;;;;;;;;6177476;28;20207;-65
2023/07/03 05:15:31;;;;;;;6.27;4.87;;;;;;;;;;6176766;28;20238;-64
2023/07/03 05:18:32;;;;;;;11.50;6.20;;;;;;;;;;6184185;28;20202;-66
2023/07/03 05:21:33;;;;;;;6.20;4.67;;;;;;;;;;6174226;28;20204;-65
2023/07/03 05:24:34;;;;;;;7.27;5.63;;;;;;;;;;6182509;28;20250;-67
2023/07/03 05:27:35;;;;;;;10.37;5.50;;;;;;;;;;6165521;28;20200;-67
2023/07/03 05:30:36;;;;;;;6.90;5.17;;;;;;;;;;6180973;28;20191;-67
2023/07/03 05:33:37;;;;;;;7.60;5.30;;;;;;;;;;6182819;28;20186;-67
2023/07/03 05:36:38;;;;;;;7.80;5.67;;;;;;;;;;6166253;28;20261;-67
2023/07/03 05:39:39;;;;;;;10.53;6.40;;;;;;;;;;6178167;28;20199;-67
2023/07/03 05:42:41;;;;;;;10.60;6.33;;;;;;;;;;6182293;28;20198;-67
2023/07/03 05:45:42;;;;;;;12.87;6.33;;;;;;;;;;6196410;28;20212;-66
2023/07/03 05:48:43;;;;;;;8.50;5.93;;;;;;;;;;6183290;28;20192;-66
2023/07/03 05:51:44;;;;;;;10.60;5.87;;;;;;;;;;6184186;28;20195;-66
2023/07/03 05:54:45;;;;;;;10.70;6.30;;;;;;;;;;6176036;28;20306;-66
2023/07/03 05:57:46;;;;;;;12.47;5.80;;;;;;;;;;6176777;28;20284;-66
2023/07/03 06:00:48;;;;;;;7.47;5.80;;;;;;;;;;6167760;28;20192;-66
2023/07/03 06:03:49;;;;;;;9.63;5.80;;;;;;;;;;6188255;28;20211;-66
2023/07/03 06:06:52;;;;;;;9.00;5.77;;;;;;;;;;6191890;28;20199;-66
2023/07/03 06:09:53;;;;;;;8.63;6.50;;;;;;;;;;6192498;28;20252;-66
2023/07/03 06:12:54;;;;;;;8.57;5.67;;;;;;;;;;6207778;28;20273;-66
2023/07/03 06:15:56;;;;;;;8.90;5.97;;;;;;;;;;6183186;28;20230;-66
2023/07/03 06:18:57;;;;;;;7.27;5.77;;;;;;;;;;6176746;28;20188;-66
2023/07/03 06:21:58;;;;;;;9.67;6.50;;;;;;;;;;6170167;28;20187;-66
2023/07/03 06:24:59;;;;;;;8.07;7.00;;;;;;;;;;6182391;28;20200;-66
2023/07/03 06:28:00;;;;;;;8.60;5.80;;;;;;;;;;6172027;28;20224;-66
2023/07/03 06:31:02;;;;;;;8.93;5.90;;;;;;;;;;6196883;28;20263;-66
2023/07/03 06:34:03;;;;;;;10.53;6.20;;;;;;;;;;6185540;28;20199;-66
2023/07/03 06:37:05;;;;;;;13.47;5.93;;;;;;;;;;6175851;28;20227;-66
2023/07/03 06:40:10;;;;;;;13.03;7.13;;;;;;;;;;6175928;28;20196;-66
2023/07/03 06:43:11;;;;;;;9.73;6.87;;;;;;;;;;6169094;28;20199;-66
2023/07/03 06:46:13;;;;;;;10.37;6.83;;;;;;;;;;6170961;28;20201;-66
2023/07/03 06:49:14;;;;;;;11.73;6.70;;;;;;;;;;6190749;28;20197;-66
2023/07/03 06:52:15;;;;;;;9.57;7.60;;;;;;;;;;6187086;28;20199;-66
2023/07/03 06:55:16;;;;;;;13.03;7.97;;;;;;;;;;6179254;28;20294;-66
2023/07/03 06:58:17;;;;;;;10.63;7.83;;;;;;;;;;6186514;28;20232;-66
2023/07/03 07:01:20;;;;;;;11.63;7.60;;;;;;;;;;6190881;28;20214;-66
2023/07/03 07:04:21;;;;;;;14.53;8.37;;;;;;;;;;6189856;28;20204;-66
2023/07/03 07:07:22;;;;;;;11.53;8.50;;;;;;;;;;6166050;28;20188;-66
2023/07/03 07:10:24;;;;;;;8.60;7.33;;;;;;;;;;6182959;28;20193;-66
2023/07/03 07:13:25;;;;;;;9.13;8.07;;;;;;;;;;6178011;28;20196;-66
2023/07/03 07:16:31;;;;;;;11.50;8.60;;;;;;;;;;6161647;28;20239;-66
2023/07/03 07:19:32;;;;;;;10.70;8.07;;;;;;;;;;6175444;28;20182;-66
2023/07/03 07:22:33;;;;;;;12.73;8.70;;;;;;;;;;6183211;28;20231;-66
2023/07/03 07:25:35;;;;;;;12.37;7.93;;;;;;;;;;6169555;28;20203;-66
2023/07/03 07:28:36;;;;;;;12.47;7.83;;;;;;;;;;6179397;28;20224;-66
2023/07/03 07:31:37;;;;;;;13.13;8.53;;;;;;;;;;6198675;28;20215;-66
2023/07/03 07:34:38;;;;;;;11.83;8.30;;;;;;;;;;6176301;28;20227;-66
2023/07/03 07:37:39;;;;;;;13.13;8.20;;;;;;;;;;6179693;28;20219;-66
2023/07/03 07:40:40;;;;;;;12.23;8.43;;;;;;;;;;6176602;28;20249;-66
2023/07/03 07:43:41;;;;;;;12.57;8.03;;;;;;;;;;6184368;28;20194;-66
2023/07/03 07:46:42;;;;;;;10.40;8.07;;;;;;;;;;6181870;28;20191;-66
2023/07/03 07:49:44;;;;;;;12.60;8.33;;;;;;;;;;6189548;28;20188;-66
2023/07/03 07:52:45;;;;;;;15.13;9.10;;;;;;;;;;6175776;28;20202;-66
2023/07/03 07:55:46;;;;;;;13.77;9.10;;;;;;;;;;6172544;28;20219;-66
2023/07/03 07:58:48;;;;;;;12.47;8.30;;;;;;;;;;6191544;28;20184;-66
2023/07/03 08:01:49;;;;;;;15.17;9.73;;;;;;;;;;6173680;28;20203;-66
2023/07/03 08:04:50;;;;;;;11.87;8.97;;;;;;;;;;6175900;28;20211;-66
2023/07/03 08:07:52;;;;;;;12.23;8.17;;;;;;;;;;6183295;28;20295;-66
2023/07/03 08:10:55;;;;;;;13.73;8.30;;;;;;;;;;6180219;28;20202;-66
2023/07/03 08:13:56;;;;;;;12.37;8.93;;;;;;;;;;6189707;28;20188;-66
2023/07/03 08:16:57;;;;;;;11.03;8.80;;;;;;;;;;6174633;28;20220;-66
2023/07/03 08:19:58;;;;;;;13.20;9.00;;;;;;;;;;6192015;28;20211;-66
2023/07/03 08:22:59;;;;;;;11.07;9.53;;;;;;;;;;6181002;28;20278;-66
2023/07/03 08:26:01;;;;;;;14.03;10.13;;;;;;;;;;6178707;28;20266;-66
2023/07/03 08:29:02;;;;;;;14.63;9.53;;;;;;;;;;6185094;28;20246;-66
2023/07/03 08:32:03;;;;;;;14.97;10.97;;;;;;;;;;6187833;28;20228;-66
2023/07/03 08:35:04;;;;;;;13.67;10.30;;;;;;;;;;6170559;28;20270;-66
2023/07/03 08:38:05;;;;;;;15.13;10.07;;;;;;;;;;6179728;28;20223;-66
2023/07/03 08:41:06;;;;;;;18.73;10.53;;;;;;;;;;6161671;28;20197;-66
2023/07/03 08:44:07;;;;;;;13.33;9.63;;;;;;;;;;6179039;28;20191;-66
2023/07/03 08:47:12;;;;;;;15.77;10.57;;;;;;;;;;6165621;28;20207;-66
2023/07/03 08:50:16;;;;;;;16.40;11.10;;;;;;;;;;6186393;28;20208;-66
2023/07/03 08:53:19;;;;;;;15.10;12.17;;;;;;;;;;6184725;28;20193;-66
2023/07/03 08:56:22;;;;;;;21.53;13.33;;;;;;;;;;6175068;28;20241;-66
2023/07/03 08:59:23;;;;;;;17.23;12.53;;;;;;;;;;6179687;28;20191;-66
2023/07/03 09:02:30;;;;;;;14.83;12.10;;;;;;;;;;6180538;28;20185;-66
2023/07/03 09:05:31;;;;;;;20.87;13.63;;;;;;;;;;6188303;28;20284;-66
2023/07/03 09:08:41;;;;;;;16.83;13.70;;;;;;;;;;6187158;28;20219;-66
2023/07/03 09:11:45;;;;;;;19.83;13.27;;;;;;;;;;6177345;28;20615;-66
2023/07/03 09:14:53;;;;;;;15.60;11.43;;;;;;;;;;6194661;28;20243;-66
2023/07/03 09:17:56;;;;;;;14.10;12.37;;;;;;;;;;6176928;28;20240;-66
2023/07/03 09:20:58;;;;;;;16.40;12.53;;;;;;;;;;6179353;28;20189;-66
2023/07/03 09:24:09;;;;;;;18.57;11.87;;;;;;;;;;6188300;28;20196;-66
2023/07/03 09:27:19;;;;;;;14.47;10.73;;;;;;;;;;6194131;28;20200;-66
2023/07/03 09:30:20;;;;;;;13.23;10.60;;;;;;;;;;6186921;28;20252;-66
2023/07/03 09:33:21;;;;;;;12.30;10.20;;;;;;;;;;6170139;28;20192;-66
2023/07/03 09:36:31;;;;;;;13.23;10.47;;;;;;;;;;6184724;28;20216;-66
2023/07/03 09:39:32;;;;;;;12.27;10.87;;;;;;;;;;6180370;28;20213;-66
2023/07/03 09:42:33;;;;;;;12.90;11.23;;;;;;;;;;6180234;28;20184;-66
2023/07/03 09:45:35;;;;;;;14.67;11.00;;;;;;;;;;6178402;28;20198;-66
2023/07/03 09:48:36;;;;;;;11.57;10.37;;;;;;;;;;6168837;28;20283;-66
2023/07/03 09:51:38;;;;;;;13.10;10.87;;;;;;;;;;6166251;28;20192;-66
2023/07/03 09:54:42;;;;;;;12.60;10.90;;;;;;;;;;6184831;28;20239;-66
2023/07/03 09:57:44;;;;;;;9.77;8.87;;;;;;;;;;6177430;28;20274;-66
2023/07/03 10:00:51;;;;;;;12.40;10.57;;;;;;;;;;6172253;28;20276;-65
2023/07/03 10:04:12;;;;;;;11.37;10.27;;;;;;;;;;6184861;28;20184;-65
2023/07/03 10:07:17;;;;;;;14.57;11.97;;;;;;;;;;6183381;28;20212;-65
2023/07/03 10:10:21;;;;;;;13.23;11.27;;;;;;;;;;6192251;28;20219;-65
2023/07/03 10:13:22;;;;;;;16.67;11.70;;;;;;;;;;6201298;28;20391;-65
2023/07/03 10:16:24;;;;;;;10.80;9.70;;;;;;;;;;6186655;28;20235;-65
2023/07/03 10:19:25;;;;;;;9.80;8.80;;;;;;;;;;6171256;28;20188;-65
2023/07/03 10:22:26;;;;;;;11.10;8.90;;;;;;;;;;6170180;28;20196;-65
2023/07/03 10:25:29;;;;;;;11.33;9.20;;;;;;;;;;6175129;28;20188;-65
2023/07/03 10:28:33;;;;;;;11.23;8.63;;;;;;;;;;6185170;28;20290;-65
2023/07/03 10:31:46;;;;;;;10.10;8.60;;;;;;;;;;6188850;28;20184;-66
2023/07/03 10:35:06;;;;;;;11.37;8.67;;;;;;;;;;6187333;28;20212;-65
2023/07/03 10:38:13;;;;;;;10.40;9.40;;;;;;;;;;6185748;28;20276;-65
2023/07/03 10:41:28;;;;;;;10.13;9.10;;;;;;;;;;6180536;28;20189;-65
2023/07/03 10:44:36;;;;;;;9.30;8.40;;;;;;;;;;6192627;28;20256;-65
2023/07/03 10:47:43;;;;;;;12.17;9.93;;;;;;;;;;6194090;28;20191;-65
2023/07/03 10:50:52;;;;;;;13.13;10.17;;;;;;;;;;6186333;28;20191;-65
2023/07/03 10:54:03;;;;;;;10.17;9.13;;;;;;;;;;6183734;28;20253;-65
2023/07/03 10:57:07;;;;;;;11.03;8.03;;;;;;;;;;6193467;28;20259;-65
2023/07/03 11:00:12;;;;;;;9.57;8.53;;;;;;;;;;6184682;28;20193;-66
2023/07/03 11:03:41;;;;;;;9.87;8.90;;;;;;;;;;6212307;28;20272;-66
2023/07/03 11:07:03;;;;;;;11.57;9.67;;;;;;;;;;6194718;28;20201;-66
2023/07/03 11:10:04;;;;;;;10.43;9.17;;;;;;;;;;6171756;28;20200;-66
2023/07/03 11:13:20;;;;;;;9.53;8.23;;;;;;;;;;6208371;28;20247;-66
2023/07/03 11:16:24;;;;;;;9.33;8.40;;;;;;;;;;6186035;28;20244;-66
2023/07/03 11:19:30;;;;;;;11.20;9.33;;;;;;;;;;6184406;28;20192;-66
2023/07/03 11:22:34;;;;;;;9.40;8.50;;;;;;;;;;6203545;28;20252;-67
2023/07/03 11:25:40;;;;;;;10.43;9.13;;;;;;;;;;6196089;28;20200;-66
2023/07/03 11:28:43;;;;;;;10.50;9.03;;;;;;;;;;6197793;28;20204;-66
2023/07/03 11:31:45;;;;;;;9.40;8.43;;;;;;;;;;6179312;28;20189;-66
2023/07/03 11:34:47;;;;;;;9.97;8.97;;;;;;;;;;6192370;28;20219;-66
2023/07/03 11:38:00;;;;;;;9.50;8.60;;;;;;;;;;6196919;28;20250;-66
2023/07/03 11:41:03;;;;;;;10.10;8.43;;;;;;;;;;6189034;28;20196;-66
2023/07/03 11:44:15;;;;;;;9.40;8.50;;;;;;;;;;6185464;28;20192;-66
2023/07/03 11:47:35;;;;;;;11.10;9.67;;;;;;;;;;6185207;28;20197;-66
2023/07/03 11:50:36;;;;;;;8.87;7.97;;;;;;;;;;6192894;28;20219;-66
2023/07/03 11:53:39;;;;;;;9.53;7.57;;;;;;;;;;6180880;28;20195;-66
2023/07/03 11:56:40;;;;;;;9.93;8.43;;;;;;;;;;6187317;28;20299;-66
2023/07/03 11:59:42;;;;;;;9.90;8.63;;;;;;;;;;6195547;28;20180;-66
2023/07/03 12:02:50;;;;;;;13.90;9.63;;;;;;;;;;6178989;28;20203;-66
2023/07/03 12:05:53;;;;;;;12.30;10.23;;;;;;;;;;6181704;28;20193;-66
2023/07/03 12:08:54;;;;;;;13.93;10.37;;;;;;;;;;6176532;28;20189;-66
2023/07/03 12:12:06;;;;;;;12.00;10.10;;;;;;;;;;6189936;28;20196;-66
2023/07/03 12:15:12;;;;;;;11.13;10.00;;;;;;;;;;6179475;28;20258;-66
2023/07/03 12:18:13;;;;;;;11.60;10.17;;;;;;;;;;6176406;28;20287;-66
2023/07/03 12:21:14;;;;;;;13.27;10.97;;;;;;;;;;6189563;28;20196;-66
2023/07/03 12:24:20;;;;;;;15.47;10.80;;;;;;;;;;6172016;28;20247;-66
2023/07/03 12:27:23;;;;;;;11.93;10.40;;;;;;;;;;6186679;28;20211;-66
2023/07/03 12:30:25;;;;;;;12.70;10.40;;;;;;;;;;6193316;28;20200;-66
2023/07/03 12:33:26;;;;;;;12.10;10.50;;;;;;;;;;6183569;28;20195;-66
2023/07/03 12:36:36;;;;;;;12.77;11.07;;;;;;;;;;6173926;28;20219;-66
2023/07/03 12:39:37;;;;;;;13.30;10.80;;;;;;;;;;6178381;28;20189;-66
2023/07/03 12:42:38;;;;;;;12.53;11.03;;;;;;;;;;6170606;28;20188;-66
2023/07/03 12:45:39;;;;;;;12.40;10.87;;;;;;;;;;6182511;28;20192;-66
2023/07/03 12:48:41;;;;;;;12.73;11.43;;;;;;;;;;6168177;28;20195;-66
2023/07/03 12:51:42;;;;;;;12.23;10.93;;;;;;;;;;6173578;28;20193;-66
2023/07/03 12:54:43;;;;;;;16.00;12.03;;;;;;;;;;6189558;28;20188;-66
2023/07/03 12:57:45;;;;;;;14.13;10.60;;;;;;;;;;6171320;28;20195;-66
2023/07/03 13:00:46;;;;;;;13.30;11.00;;;;;;;;;;6166800;28;20199;-66
2023/07/03 13:03:47;;;;;;;12.97;11.13;;;;;;;;;;6158413;28;20199;-66
2023/07/03 13:06:48;;;;;;;13.63;10.87;;;;;;;;;;6167160;28;20192;-66
2023/07/03 13:09:49;;;;;;;14.23;11.70;;;;;;;;;;6178658;28;20191;-66
2023/07/03 13:13:03;;;;;;;12.90;11.33;;;;;;;;;;6192988;28;20254;-66
2023/07/03 13:16:17;;;;;;;13.27;11.47;;;;;;;;;;6184512;28;20243;-66
2023/07/03 13:19:35;;;;;;;12.93;11.33;;;;;;;;;;6183728;28;20194;-66
2023/07/03 13:22:36;;;;;;;13.37;11.73;;;;;;;;;;6193589;28;20196;-66
2023/07/03 13:25:39;;;;;;;12.67;11.10;;;;;;;;;;6175498;28;20282;-66
2023/07/03 13:28:42;;;;;;;13.87;11.47;;;;;;;;;;6183544;28;20196;-66
2023/07/03 13:31:43;;;;;;;15.03;11.43;;;;;;;;;;6182282;28;20224;-66
2023/07/03 13:34:55;;;;;;;17.43;12.53;;;;;;;;;;6174217;28;20194;-66
2023/07/03 13:38:13;;;;;;;14.03;11.63;;;;;;;;;;6176622;28;20192;-66
2023/07/03 13:41:14;;;;;;;15.07;11.77;;;;;;;;;;6181091;28;20189;-67
2023/07/03 13:44:19;;;;;;;13.97;11.87;;;;;;;;;;6163213;28;20188;-65
2023/07/03 13:47:20;;;;;;;14.67;11.93;;;;;;;;;;6190401;28;20191;-66
2023/07/03 13:50:21;;;;;;;16.70;12.43;;;;;;;;;;6165962;28;20205;-66
2023/07/03 13:53:23;;;;;;;13.17;11.73;;;;;;;;;;6176803;28;20209;-66
2023/07/03 13:56:24;;;;;;;17.30;12.97;;;;;;;;;;6185853;28;20224;-66
2023/07/03 13:59:25;;;;;;;17.70;13.53;;;;;;;;;;6170136;28;20192;-66
2023/07/03 14:02:26;;;;;;;19.17;13.30;;;;;;;;;;6163839;28;20242;-66
2023/07/03 14:05:29;;;;;;;14.43;12.33;;;;;;;;;;6174719;28;20227;-66
2023/07/03 14:08:30;;;;;;;17.27;13.40;;;;;;;;;;6184525;28;20191;-66
2023/07/03 14:11:32;;;;;;;17.23;12.80;;;;;;;;;;6185464;28;20200;-66
2023/07/03 14:14:33;;;;;;;15.57;13.40;;;;;;;;;;6173915;28;20232;-66
2023/07/03 14:17:34;;;;;;;13.80;10.77;;;;;;;;;;6177226;28;20247;-69
2023/07/03 14:20:35;;;;;;;13.17;11.50;;;;;;;;;;6166396;28;20234;-67
2023/07/03 14:23:36;;;;;;;10.83;9.27;;;;;;;;;;6180655;28;20203;-67
2023/07/03 14:26:37;;;;;;;10.60;9.50;;;;;;;;;;6174693;28;20196;-67
2023/07/03 14:29:38;;;;;;;10.30;9.33;;;;;;;;;;6179640;28;20198;-67
2023/07/03 14:32:39;;;;;;;14.17;10.20;;;;;;;;;;6182105;28;20196;-67
2023/07/03 14:35:40;;;;;;;12.70;10.80;;;;;;;;;;6192183;28;20215;-68
2023/07/03 14:38:41;;;;;;;12.40;9.57;;;;;;;;;;6179260;28;20189;-68
2023/07/03 14:41:43;;;;;;;11.70;10.10;;;;;;;;;;6178289;28;20201;-67
2023/07/03 14:44:44;;;;;;;10.97;9.87;;;;;;;;;;6177256;28;20192;-67
2023/07/03 14:47:45;;;;;;;9.27;8.20;;;;;;;;;;6186100;28;20195;-67
2023/07/03 14:50:47;;;;;;;11.33;9.07;;;;;;;;;;6176550;28;20193;-69
2023/07/03 14:53:48;;;;;;;10.40;8.97;;;;;;;;;;6195577;28;20267;-68
2023/07/03 14:56:49;;;;;;;10.73;9.30;;;;;;;;;;6176504;28;20211;-68
2023/07/03 14:59:50;;;;;;;10.77;8.90;;;;;;;;;;6177791;28;20189;-68
2023/07/03 15:02:51;;;;;;;9.80;8.80;;;;;;;;;;6162958;28;20192;-68
2023/07/03 15:05:52;;;;;;;9.30;8.40;;;;;;;;;;6175239;28;20245;-68
2023/07/03 15:08:55;;;;;;;9.27;8.13;;;;;;;;;;6180462;28;20195;-68
2023/07/03 15:11:56;;;;;;;9.27;8.27;;;;;;;;;;6176101;28;20210;-68
2023/07/03 15:14:57;;;;;;;11.47;8.40;;;;;;;;;;6178819;28;20250;-68
2023/07/03 15:17:58;;;;;;;9.77;7.97;;;;;;;;;;6171695;28;20192;-68
2023/07/03 15:21:01;;;;;;;8.93;8.00;;;;;;;;;;6170609;28;20230;-68
2023/07/03 15:24:03;;;;;;;8.40;7.07;;;;;;;;;;6177077;28;20193;-68
2023/07/03 15:27:05;;;;;;;7.37;6.40;;;;;;;;;;6179329;28;20310;-66
2023/07/03 15:30:06;;;;;;;9.80;7.53;;;;;;;;;;6177010;28;20196;-66
2023/07/03 15:33:07;;;;;;;11.03;7.27;;;;;;;;;;6186482;28;20195;-66
2023/07/03 15:36:08;;;;;;;8.43;6.50;;;;;;;;;;6182190;28;20306;-67
2023/07/03 15:39:09;;;;;;;9.13;7.03;;;;;;;;;;6186900;28;20196;-67
2023/07/03 15:42:10;;;;;;;11.37;6.93;;;;;;;;;;6178020;28;20254;-67
2023/07/03 15:45:11;;;;;;;10.17;7.00;;;;;;;;;;6173421;28;20199;-67
2023/07/03 15:48:12;;;;;;;6.87;6.20;;;;;;;;;;6182486;28;20200;-67
2023/07/03 15:51:14;;;;;;;7.33;6.57;;;;;;;;;;6165173;28;20197;-67
2023/07/03 15:54:16;;;;;;;7.13;6.47;;;;;;;;;;6180364;28;20197;-66
2023/07/03 15:57:17;;;;;;;7.10;6.40;;;;;;;;;;6167698;28;20224;-66
2023/07/03 16:00:18;;;;;;;7.00;5.90;;;;;;;;;;6181564;28;20198;-66
2023/07/03 16:03:19;;;;;;;7.07;6.27;;;;;;;;;;6182460;28;20195;-66
2023/07/03 16:06:21;;;;;;;6.97;6.23;;;;;;;;;;6182709;28;20187;-66
2023/07/03 16:09:22;;;;;;;6.90;6.30;;;;;;;;;;6189596;28;20189;-66
2023/07/03 16:12:23;;;;;;;7.00;6.30;;;;;;;;;;6172258;28;20454;-66
2023/07/03 16:15:24;;;;;;;6.00;5.50;;;;;;;;;;6179126;28;20247;-66
2023/07/03 16:18:26;;;;;;;7.07;6.37;;;;;;;;;;6179162;28;20246;-66
2023/07/03 16:21:30;;;;;;;7.63;6.20;;;;;;;;;;6180524;28;20184;-69
2023/07/03 16:24:31;;;;;;;7.33;6.40;;;;;;;;;;6190055;28;20195;-69
2023/07/03 16:27:32;;;;;;;6.50;5.77;;;;;;;;;;6181741;28;20199;-69
2023/07/03 16:30:33;;;;;;;7.03;6.30;;;;;;;;;;6177616;28;20196;-67
2023/07/03 16:33:44;;;;;;;7.50;6.77;;;;;;;;;;6174399;28;20212;-68
2023/07/03 16:36:45;;;;;;;6.00;5.40;;;;;;;;;;6196769;28;20215;-66
2023/07/03 16:39:46;;;;;;;6.57;5.87;;;;;;;;;;6170978;28;20198;-68
2023/07/03 16:42:47;;;;;;;6.87;6.10;;;;;;;;;;6166546;28;20263;-72
2023/07/03 16:45:48;;;;;;;8.30;6.30;;;;;;;;;;6181253;28;20191;-70
2023/07/03 16:48:50;;;;;;;7.00;6.30;;;;;;;;;;6173621;28;20193;-70
2023/07/03 16:51:51;;;;;;;6.43;5.83;;;;;;;;;;6191881;28;20188;-70
2023/07/03 16:54:53;;;;;;;6.97;5.87;;;;;;;;;;6175828;28;20202;-68
2023/07/03 16:57:54;;;;;;;6.67;5.97;;;;;;;;;;6178693;28;20196;-70
2023/07/03 17:00:55;;;;;;;6.87;5.97;;;;;;;;;;6183292;28;20191;-69
2023/07/03 17:03:57;;;;;;;6.67;6.03;;;;;;;;;;6177735;28;20215;-70
2023/07/03 17:06:58;;;;;;;8.73;5.87;;;;;;;;;;6163396;28;20196;-67
2023/07/03 17:09:59;;;;;;;6.37;5.77;;;;;;;;;;6179241;28;20188;-69
2023/07/03 17:13:00;;;;;;;6.43;5.83;;;;;;;;;;6179893;28;20195;-70
2023/07/03 17:16:01;;;;;;;9.37;6.53;;;;;;;;;;6177443;28;20330;-70
2023/07/03 17:19:03;;;;;;;7.30;6.53;;;;;;;;;;6184167;28;20240;-71
2023/07/03 17:22:04;;;;;;;104.43;93.57;;;;;;;;;;6181206;28;20199;-70
2023/07/03 17:25:06;;;;;;;663.57;590.53;;;;;;;;;;6181114;28;20195;-70
2023/07/03 17:28:07;;;;;;;83.37;75.33;;;;;;;;;;6178016;28;20199;-70
2023/07/03 17:31:08;;;;;;;52.83;47.40;;;;;;;;;;6166988;28;20195;-69
2023/07/03 17:34:10;;;;;;;18.13;16.33;;;;;;;;;;6179915;28;20192;-71
2023/07/03 17:37:11;;;;;;;10.30;9.27;;;;;;;;;;6183097;28;20215;-70
2023/07/03 17:40:21;;;;;;;9.37;6.63;;;;;;;;;;6184304;28;20203;-66
2023/07/03 17:43:22;;;;;;;8.07;7.37;;;;;;;;;;6175704;28;20196;-67
2023/07/03 17:46:23;;;;;;;7.73;6.87;;;;;;;;;;6184502;28;20192;-67
2023/07/03 17:49:24;;;;;;;18.27;16.70;;;;;;;;;;6192310;28;20200;-67
2023/07/03 17:52:26;;;;;;;350.17;284.93;;;;;;;;;;6183991;28;20198;-67
2023/07/03 17:55:27;;;;;;;131.80;96.47;;;;;;;;;;6181512;28;20215;-66
2023/07/03 17:58:29;;;;;;;24.27;20.53;;;;;;;;;;6182175;28;20196;-66
2023/07/03 18:01:30;;;;;;;16.90;15.10;;;;;;;;;;6190952;28;20255;-66
2023/07/03 18:04:31;;;;;;;17.03;13.33;;;;;;;;;;6179655;28;20192;-66